createdAt,value
2022-11-15T00:03:08.241Z,7.8
2022-11-15T00:13:08.549Z,7.8
2022-11-15T00:23:08.795Z,7.9
2022-11-15T00:33:09.252Z,7.9
2022-11-15T00:43:09.771Z,7.9
2022-11-15T00:53:10.042Z,7.9
2022-11-15T01:03:10.706Z,8
2022-11-15T01:13:11.574Z,8.1
2022-11-15T01:23:11.974Z,8.1
2022-11-15T01:33:12.289Z,8
2022-11-15T01:43:13.265Z,8.2
2022-11-15T01:53:13.479Z,8.2
2022-11-15T02:03:14.013Z,8.2
2022-11-15T02:13:14.726Z,8.2
2022-11-15T02:23:15.228Z,8.2
2022-11-15T02:33:15.803Z,8.2
2022-11-15T02:43:16.714Z,8.3
2022-11-15T02:53:17.347Z,8.3
2022-11-15T03:03:17.466Z,8.3
2022-11-15T03:13:18.393Z,8.4
2022-11-15T03:23:18.930Z,8.5
2022-11-15T03:43:19.845Z,8.6
2022-11-15T03:53:20.802Z,8.7
2022-11-15T04:03:20.902Z,8.7
2022-11-15T04:13:21.191Z,8.7
2022-11-15T04:23:21.644Z,8.8
2022-11-15T04:33:21.809Z,8.9
2022-11-15T04:43:22.134Z,9
2022-11-15T05:03:23.825Z,9.2
2022-11-15T05:13:24.829Z,9.4
2022-11-15T05:23:25.227Z,9.5
2022-11-15T05:33:25.837Z,9.6
2022-11-15T05:43:26.381Z,9.6
2022-11-15T05:53:27.079Z,9.8
2022-11-15T06:03:27.130Z,10.3
2022-11-15T06:13:27.733Z,11
2022-11-15T06:33:28.585Z,11.5
2022-11-15T06:43:28.993Z,11.5
2022-11-15T06:53:29.765Z,11.6
2022-11-15T07:03:30.724Z,11.7
2022-11-15T07:13:31.213Z,11.8
2022-11-15T07:23:31.663Z,11.9
2022-11-15T07:33:32.697Z,11.9
2022-11-15T07:43:33.011Z,11.9
2022-11-15T07:53:33.295Z,12.2
2022-11-15T08:03:33.980Z,12.4
2022-11-15T08:13:34.528Z,12.5
2022-11-15T08:23:35.193Z,13
2022-11-15T08:43:36.820Z,13.1
2022-11-15T08:53:37.205Z,13.2
2022-11-15T09:03:37.787Z,13.3
2022-11-15T09:54:13.961Z,12.5
2022-11-15T10:03:39.573Z,13.4
2022-11-15T10:13:39.716Z,13
2022-11-15T10:33:40.807Z,13.8
2022-11-15T10:53:42.083Z,14.7
2022-11-15T11:13:42.199Z,14.6
2022-11-15T11:23:42.784Z,15
2022-11-15T11:33:43.335Z,14.9
2022-11-15T11:53:45.449Z,14.9
2022-11-15T12:03:46.506Z,15
2022-11-15T12:13:47.302Z,15.1
2022-11-15T12:23:48.084Z,15.1
2022-11-15T12:33:48.907Z,15.5
2022-11-15T12:43:49.122Z,15.6
2022-11-15T12:53:49.755Z,15.6
2022-11-15T13:03:50.312Z,14.9
2022-11-15T13:13:51.195Z,14.5
2022-11-15T13:23:51.890Z,14.4
2022-11-15T13:33:52.182Z,14.4
2022-11-15T13:43:52.393Z,14.4
2022-11-15T13:53:52.741Z,14.2
2022-11-15T14:03:53.535Z,14.2
2022-11-15T14:13:54.291Z,14.2
2022-11-15T14:23:54.680Z,14
2022-11-15T14:33:54.841Z,13.9
2022-11-15T14:43:54.980Z,13.8
2022-11-15T15:13:56.735Z,13.4
2022-11-15T15:23:57.536Z,13.3
2022-11-15T15:33:57.953Z,13.2
2022-11-15T15:43:58.736Z,13.1
2022-11-15T15:53:58.837Z,13
2022-11-15T16:03:59.522Z,12.9
2022-11-15T16:14:00.333Z,12.8
2022-11-15T16:24:00.898Z,12.7
2022-11-15T16:34:01.671Z,12.5
2022-11-15T16:44:02.058Z,12.4
2022-11-15T16:54:02.929Z,12.4
2022-11-15T17:04:03.777Z,12.4
2022-11-15T17:14:04.249Z,12.4
2022-11-15T17:24:04.565Z,12.3
2022-11-15T17:34:04.709Z,12.2
2022-11-15T17:54:05.331Z,12.3
2022-11-15T18:04:06.086Z,12.2
2022-11-15T18:14:06.373Z,12.1
2022-11-15T18:24:06.878Z,12
2022-11-15T18:34:07.962Z,12
2022-11-15T18:44:08.066Z,12
2022-11-15T18:54:08.896Z,12
2022-11-15T19:04:09.468Z,11.9
2022-11-15T19:14:09.887Z,11.9
2022-11-15T19:24:10.212Z,11.8
2022-11-15T19:34:10.707Z,11.8
2022-11-15T19:44:11.165Z,11.6
2022-11-15T19:54:11.275Z,11.6
2022-11-15T20:14:12.791Z,11.6
2022-11-15T20:24:13.621Z,11.6
2022-11-15T20:34:13.852Z,11.4
2022-11-15T20:44:14.004Z,11.2
2022-11-15T20:54:14.596Z,10.8
2022-11-15T21:14:15.052Z,10.6
2022-11-15T21:24:15.349Z,10.6
2022-11-15T21:34:16.240Z,10.5
2022-11-15T21:44:17.002Z,10.4
2022-11-15T22:04:17.837Z,10.4
2022-11-15T22:14:18.204Z,10.4
2022-11-15T22:24:19.019Z,10.5
2022-11-15T22:34:19.847Z,10.6
2022-11-15T22:44:20.256Z,10.6
2022-11-15T22:54:21.174Z,10.7
2022-11-15T23:04:21.542Z,10.7
2022-11-15T23:14:21.764Z,10.8
2022-11-15T23:24:22.353Z,10.8
2022-11-15T23:34:23.065Z,10.9
2022-11-15T23:44:23.564Z,10.9
2022-11-15T23:54:23.890Z,10.9
